createdAt,value
2023-03-29T00:04:15.747Z,1000.83
2023-03-29T00:09:59.871Z,1000.75
2023-03-29T00:15:44.115Z,1000.64
2023-03-29T00:21:28.078Z,1000.53
2023-03-29T00:27:12.140Z,1000.52
2023-03-29T00:32:56.192Z,1000.56
2023-03-29T00:38:41.165Z,1000.48
2023-03-29T00:44:36.623Z,1000.4
2023-03-29T00:50:21.711Z,1000.3
2023-03-29T00:56:08.357Z,1000.16
2023-03-29T01:01:55.065Z,1000.18
2023-03-29T01:07:44.066Z,1000.21
2023-03-29T01:13:33.407Z,1000.23
2023-03-29T01:19:20.121Z,1000.15
2023-03-29T01:25:11.497Z,1000.12
2023-03-29T01:30:58.171Z,1000.04
2023-03-29T01:36:45.897Z,999.98
2023-03-29T01:42:42.123Z,999.94
2023-03-29T01:48:29.770Z,999.84
2023-03-29T01:54:16.360Z,999.82
2023-03-29T02:00:01.685Z,999.71
2023-03-29T02:05:46.266Z,999.68
2023-03-29T02:11:30.564Z,999.68
2023-03-29T02:17:24.424Z,999.74
2023-03-29T02:23:11.973Z,999.61
2023-03-29T02:28:56.193Z,999.58
2023-03-29T02:34:44.158Z,999.55
2023-03-29T02:40:28.360Z,999.5
2023-03-29T02:46:13.621Z,999.42
2023-03-29T02:51:58.915Z,999.41
2023-03-29T02:57:43.102Z,999.41
2023-03-29T03:03:27.443Z,999.46
2023-03-29T03:09:11.861Z,999.45
2023-03-29T03:14:56.041Z,999.39
2023-03-29T03:20:40.958Z,999.31
2023-03-29T03:26:25.130Z,999.21
2023-03-29T03:32:09.340Z,999.09
2023-03-29T03:37:53.418Z,999.03
2023-03-29T03:43:37.571Z,999.14
2023-03-29T03:49:21.570Z,999.15
2023-03-29T03:55:06.005Z,999.17
2023-03-29T04:00:50.426Z,999.2
2023-03-29T04:06:34.482Z,999.28
2023-03-29T04:12:18.430Z,999.15
2023-03-29T04:18:02.858Z,999
2023-03-29T04:23:47.736Z,999.05
2023-03-29T04:29:31.928Z,999.03
2023-03-29T04:35:16.222Z,999.01
2023-03-29T04:41:04.399Z,999.03
2023-03-29T04:46:48.612Z,999.02
2023-03-29T04:52:32.915Z,999
2023-03-29T04:58:17.047Z,999
2023-03-29T05:04:08.239Z,998.98
2023-03-29T05:09:55.846Z,998.88
2023-03-29T05:15:42.292Z,998.84
2023-03-29T05:21:26.499Z,998.92
2023-03-29T05:27:10.524Z,998.92
2023-03-29T05:32:54.601Z,998.97
2023-03-29T05:38:38.725Z,998.98
2023-03-29T05:44:22.855Z,999
2023-03-29T05:50:07.599Z,999.03
2023-03-29T05:55:51.782Z,999.02
2023-03-29T06:01:35.857Z,999.04
2023-03-29T06:07:19.868Z,998.96
2023-03-29T06:13:04.802Z,999
2023-03-29T06:18:48.834Z,998.89
2023-03-29T06:24:32.751Z,998.94
2023-03-29T06:30:17.725Z,999
2023-03-29T06:36:01.771Z,999
2023-03-29T06:41:46.889Z,998.93
2023-03-29T06:47:30.633Z,998.96
2023-03-29T06:53:15.018Z,999.11
2023-03-29T06:58:59.151Z,999.12
2023-03-29T07:04:43.362Z,999.21
2023-03-29T07:10:28.324Z,999.05
2023-03-29T07:16:13.032Z,999.15
2023-03-29T07:21:57.400Z,999.17
2023-03-29T07:27:42.104Z,999.06
2023-03-29T07:33:26.322Z,999.06
2023-03-29T07:39:10.731Z,999.14
2023-03-29T07:44:54.974Z,999.16
2023-03-29T07:50:39.057Z,999.15
2023-03-29T07:56:23.736Z,999.12
2023-03-29T08:02:07.735Z,999.14
2023-03-29T08:07:51.835Z,999.3
2023-03-29T08:13:35.883Z,999.36
2023-03-29T08:19:19.955Z,999.44
2023-03-29T08:25:04.429Z,999.28
2023-03-29T08:30:48.416Z,999.22
2023-03-29T08:36:32.558Z,999.17
2023-03-29T08:42:25.846Z,999.2
2023-03-29T08:48:15.654Z,999.16
2023-03-29T08:54:02.081Z,999.09
2023-03-29T08:59:46.805Z,999.08
2023-03-29T09:05:34.094Z,999.06
2023-03-29T09:11:30.890Z,999
2023-03-29T09:17:18.351Z,998.95
2023-03-29T09:23:12.399Z,999.06
2023-03-29T09:28:59.521Z,999.08
2023-03-29T09:34:45.029Z,999.11
2023-03-29T09:40:32.188Z,999.04
2023-03-29T09:46:20.962Z,999.07
2023-03-29T09:52:08.032Z,998.94
2023-03-29T09:57:52.519Z,998.78
2023-03-29T10:03:37.273Z,998.75
2023-03-29T10:09:22.480Z,998.79
2023-03-29T10:15:11.679Z,998.73
2023-03-29T10:21:07.876Z,998.71
2023-03-29T10:26:52.766Z,998.7
2023-03-29T10:32:37.429Z,998.63
2023-03-29T10:38:24.027Z,998.61
2023-03-29T10:44:15.663Z,998.58
2023-03-29T10:49:59.550Z,998.52
2023-03-29T10:55:47.507Z,998.37
2023-03-29T11:01:35.908Z,998.35
2023-03-29T11:07:31.494Z,998.4
2023-03-29T11:13:20.696Z,998.43
2023-03-29T11:19:17.059Z,998.41
2023-03-29T11:25:05.791Z,998.45
2023-03-29T11:30:52.336Z,998.47
2023-03-29T11:36:39.416Z,998.57
2023-03-29T11:42:25.201Z,998.38
2023-03-29T11:48:15.037Z,998.3
2023-03-29T11:54:02.806Z,998.24
2023-03-29T11:59:51.773Z,998.13
2023-03-29T12:05:37.852Z,998.07
2023-03-29T12:11:26.844Z,997.98
2023-03-29T12:17:13.616Z,998.05
2023-03-29T12:22:57.970Z,997.99
2023-03-29T12:28:53.990Z,997.91
2023-03-29T12:34:45.737Z,997.87
2023-03-29T12:40:34.916Z,997.83
2023-03-29T12:46:20.417Z,997.76
2023-03-29T12:52:07.199Z,997.62
2023-03-29T12:58:02.433Z,997.41
2023-03-29T13:03:48.075Z,997.22
2023-03-29T13:09:32.881Z,997.23
2023-03-29T13:15:28.375Z,997.03
2023-03-29T13:21:18.860Z,997.04
2023-03-29T13:27:08.482Z,996.98
2023-03-29T13:32:56.900Z,997.02
2023-03-29T13:38:49.543Z,996.95
2023-03-29T13:44:38.622Z,996.97
2023-03-29T13:50:27.706Z,996.93
2023-03-29T13:56:15.454Z,996.92
2023-03-29T14:02:01.707Z,996.89
2023-03-29T14:07:48.646Z,996.86
2023-03-29T14:13:32.750Z,996.81
2023-03-29T14:19:19.267Z,996.64
2023-03-29T14:25:06.306Z,996.46
2023-03-29T14:30:50.382Z,996.5
2023-03-29T14:36:35.775Z,996.32
2023-03-29T14:42:21.368Z,996.31
2023-03-29T14:48:05.910Z,996.17
2023-03-29T14:53:50.796Z,996.05
2023-03-29T14:59:38.555Z,996.06
2023-03-29T15:05:42.538Z,995.98
2023-03-29T15:11:27.651Z,995.88
2023-03-29T15:17:16.928Z,995.7
2023-03-29T15:23:02.811Z,995.67
2023-03-29T15:28:51.462Z,995.59
2023-03-29T15:34:35.697Z,995.49
2023-03-29T15:40:22.523Z,995.32
2023-03-29T15:46:08.488Z,995.17
2023-03-29T15:51:53.058Z,995.15
2023-03-29T15:57:37.454Z,994.96
2023-03-29T16:03:22.065Z,994.97
2023-03-29T16:09:06.514Z,994.95
2023-03-29T16:14:50.454Z,994.93
2023-03-29T16:20:34.435Z,994.83
2023-03-29T16:26:18.643Z,994.75
2023-03-29T16:32:06.689Z,994.72
2023-03-29T16:37:51.404Z,994.61
2023-03-29T16:43:35.561Z,994.6
2023-03-29T16:49:19.563Z,994.7
2023-03-29T16:55:03.556Z,994.57
2023-03-29T17:00:49.623Z,994.48
2023-03-29T17:06:34.485Z,994.54
2023-03-29T17:12:19.394Z,994.36
2023-03-29T17:18:03.850Z,994.32
2023-03-29T17:23:47.975Z,994.24
2023-03-29T17:29:31.989Z,994.12
2023-03-29T17:35:16.076Z,994.11
2023-03-29T17:41:00.118Z,994.14
2023-03-29T17:46:45.343Z,994.09
2023-03-29T17:52:29.660Z,994.08
2023-03-29T17:58:13.732Z,993.99
2023-03-29T18:03:57.686Z,993.97
2023-03-29T18:09:42.904Z,993.82
2023-03-29T18:15:26.966Z,993.75
2023-03-29T18:21:11.165Z,993.71
2023-03-29T18:26:55.294Z,993.67
2023-03-29T18:32:39.440Z,993.69
2023-03-29T18:38:23.703Z,993.71
2023-03-29T18:44:07.834Z,993.71
2023-03-29T18:49:51.982Z,993.69
2023-03-29T18:55:35.948Z,993.61
2023-03-29T19:01:19.977Z,993.56
2023-03-29T19:07:06.106Z,993.54
2023-03-29T19:12:50.169Z,993.36
2023-03-29T19:18:34.682Z,993.41
2023-03-29T19:24:21.803Z,993.46
2023-03-29T19:30:08.254Z,993.41
2023-03-29T19:35:52.281Z,993.39
2023-03-29T19:41:36.380Z,993.26
2023-03-29T19:47:23.657Z,993.29
2023-03-29T19:53:08.855Z,993.21
2023-03-29T19:58:53.879Z,993.14
2023-03-29T20:04:38.069Z,993.09
2023-03-29T20:10:23.316Z,993.02
2023-03-29T20:16:07.634Z,992.98
2023-03-29T20:21:51.848Z,993
2023-03-29T20:27:35.968Z,992.94
2023-03-29T20:33:21.424Z,992.82
2023-03-29T20:39:05.638Z,992.85
2023-03-29T20:44:49.459Z,992.88
2023-03-29T20:50:33.426Z,992.83
2023-03-29T20:56:17.502Z,992.81
2023-03-29T21:02:01.751Z,992.76
2023-03-29T21:07:45.986Z,992.71
2023-03-29T21:13:30.079Z,992.73
2023-03-29T21:19:16.526Z,992.77
2023-03-29T21:25:00.565Z,992.7
2023-03-29T21:30:44.763Z,992.69
2023-03-29T21:36:28.950Z,992.49
2023-03-29T21:42:12.870Z,992.48
2023-03-29T21:47:56.951Z,992.41
2023-03-29T21:53:41.173Z,992.39
2023-03-29T21:59:25.264Z,992.39
2023-03-29T22:05:09.558Z,992.35
2023-03-29T22:10:54.084Z,992.27
2023-03-29T22:16:39.160Z,992.29
2023-03-29T22:22:23.753Z,992.14
2023-03-29T22:28:07.734Z,992.22
2023-03-29T22:33:54.434Z,992.11
2023-03-29T22:39:39.295Z,992.01
2023-03-29T22:45:23.454Z,992.03
2023-03-29T22:51:07.987Z,991.84
2023-03-29T22:56:52.045Z,991.97
2023-03-29T23:02:36.181Z,992.1
2023-03-29T23:08:20.307Z,992.22
2023-03-29T23:14:04.342Z,992.21
2023-03-29T23:19:48.663Z,992.11
2023-03-29T23:25:32.650Z,992.13
2023-03-29T23:31:16.932Z,992.14
2023-03-29T23:37:01.252Z,992.02
2023-03-29T23:42:47.029Z,991.88
2023-03-29T23:48:31.932Z,991.68
2023-03-29T23:54:16.306Z,991.56
